createdAt,value
2022-08-07T00:02:35.118Z,4.5
2022-08-07T00:03:28.370Z,5.1
2022-08-07T00:05:32.256Z,4.2
2022-08-07T00:07:40.292Z,5.4
2022-08-07T00:09:40.040Z,4.2
2022-08-07T00:15:51.829Z,4.9
2022-08-07T00:20:03.582Z,4.8
2022-08-07T00:22:06.705Z,4.3
2022-08-07T00:23:10.299Z,5.6
2022-08-07T00:25:16.551Z,8.9
2022-08-07T00:27:18.078Z,4.4
2022-08-07T00:29:23.370Z,4.1
2022-08-07T00:31:37.943Z,4.4
2022-08-07T00:33:33.078Z,4.8
2022-08-07T00:35:37.005Z,4.9
2022-08-07T00:37:47.715Z,6.7
2022-08-07T00:39:45.218Z,6.2
2022-08-07T00:41:53.864Z,4.9
2022-08-07T00:44:01.274Z,4.8
2022-08-07T00:45:59.705Z,4.3
2022-08-07T00:48:10.391Z,4.9
2022-08-07T00:50:21.131Z,6
2022-08-07T00:52:11.421Z,4.5
2022-08-07T00:54:15.347Z,4.3
2022-08-07T00:56:19.255Z,4.9
2022-08-07T00:58:23.162Z,6.1
2022-08-07T01:00:30.368Z,5.8
2022-08-07T01:02:34.211Z,5.5
2022-08-07T01:04:43.325Z,5.6
2022-08-07T01:06:42.007Z,5.2
2022-08-07T01:10:54.405Z,7.4
2022-08-07T01:12:54.678Z,4.8
2022-08-07T01:15:03.727Z,5
2022-08-07T01:17:07.122Z,5.3
2022-08-07T01:20:16.851Z,7.7
2022-08-07T01:22:22.936Z,11.9
2022-08-07T01:24:21.660Z,5.2
2022-08-07T01:26:26.132Z,4.9
2022-08-07T01:28:32.800Z,8.6
2022-08-07T01:30:36.635Z,6.8
2022-08-07T01:32:40.545Z,6.7
2022-08-07T01:34:44.440Z,5.2
2022-08-07T01:36:52.584Z,6.5
2022-08-07T01:38:52.248Z,5.7
2022-08-07T01:40:56.120Z,4.6
2022-08-07T01:43:03.394Z,5
2022-08-07T01:45:10.118Z,9.9
2022-08-07T01:47:14.589Z,5.9
2022-08-07T01:49:15.535Z,5.2
2022-08-07T01:52:02.176Z,7.2
2022-08-07T01:54:09.621Z,5.2
2022-08-07T01:55:26.687Z,6
2022-08-07T01:57:34.228Z,6.2
2022-08-07T01:59:37.785Z,6.6
2022-08-07T02:02:02.053Z,6.8
2022-08-07T02:03:50.855Z,7.8
2022-08-07T02:05:55.332Z,7
2022-08-07T02:07:53.415Z,7
2022-08-07T02:20:07.846Z,5.9
2022-08-07T02:21:23.683Z,6.3
2022-08-07T02:23:27.564Z,10.1
2022-08-07T02:26:30.605Z,6.7
2022-08-07T02:27:41.163Z,7.8
2022-08-07T02:29:48.614Z,7.2
2022-08-07T02:34:01.822Z,9.2
2022-08-07T02:42:10.035Z,6.9
2022-08-07T02:44:13.167Z,6.4
2022-08-07T02:46:17.108Z,6.3
2022-08-07T02:48:20.987Z,8.2
2022-08-07T02:50:24.880Z,7.1
2022-08-07T02:52:32.068Z,7.8
2022-08-07T02:54:35.965Z,6.5
2022-08-07T02:56:39.854Z,6.8
2022-08-07T02:58:47.462Z,7.4
2022-08-07T03:02:54.802Z,5.5
2022-08-07T03:04:55.485Z,6.7
2022-08-07T03:06:59.401Z,7.1
2022-08-07T03:09:06.578Z,8.2
2022-08-07T03:11:10.472Z,9.6
2022-08-07T03:13:14.394Z,6.7
2022-08-07T03:15:55.835Z,7.2
2022-08-07T03:17:53.508Z,5.7
2022-08-07T03:19:40.905Z,8.3
2022-08-07T03:21:50.792Z,8.5
2022-08-07T03:24:19.217Z,7.2
2022-08-07T03:25:59.900Z,9.3
2022-08-07T03:28:09.516Z,6.6
2022-08-07T03:30:03.866Z,11.1
2022-08-07T03:32:08.289Z,7.8
2022-08-07T03:34:11.519Z,5.9
2022-08-07T03:36:18.699Z,8.3
2022-08-07T03:38:29.557Z,8.8
2022-08-07T03:40:31.227Z,6.9
2022-08-07T03:42:30.401Z,9.2
2022-08-07T03:44:34.753Z,8.1
2022-08-07T03:46:38.243Z,7.7
2022-08-07T03:48:45.617Z,7.1
2022-08-07T03:50:55.883Z,7.7
2022-08-07T03:52:53.205Z,6.9
2022-08-07T03:57:07.006Z,7.5
2022-08-07T04:03:12.689Z,8.4
2022-08-07T04:05:19.857Z,10.6
2022-08-07T04:07:23.765Z,9.5
2022-08-07T04:10:31.263Z,7.5
2022-08-07T04:16:43.083Z,9.8
2022-08-07T04:18:59.671Z,7.6
2022-08-07T04:20:55.259Z,8.1
2022-08-07T04:23:01.387Z,9.6
2022-08-07T04:25:02.304Z,10.3
2022-08-07T04:27:05.991Z,10.1
2022-08-07T04:29:10.999Z,10.3
2022-08-07T04:31:19.761Z,7.1
2022-08-07T04:33:20.963Z,9.4
2022-08-07T04:41:36.915Z,8.7
2022-08-07T04:48:01.380Z,9.9
2022-08-07T04:49:57.892Z,12
2022-08-07T04:51:59.996Z,10.5
2022-08-07T04:58:24.423Z,8.6
2022-08-07T04:58:42.398Z,8.9
2022-08-07T05:00:18.926Z,9.6
2022-08-07T05:02:22.176Z,17.9
2022-08-07T05:04:26.370Z,9.4
2022-08-07T05:06:29.978Z,12
2022-08-07T05:07:37.039Z,11.2
2022-08-07T05:14:56.260Z,10.8
2022-08-07T05:17:56.619Z,11.2
2022-08-07T05:22:04.756Z,13.8
2022-08-07T05:28:21.103Z,15.6
2022-08-07T05:32:26.931Z,11.7
2022-08-07T05:34:30.828Z,11.4
2022-08-07T05:36:35.671Z,14.3
2022-08-07T05:39:01.264Z,17.4
2022-08-07T05:42:55.903Z,16.7
2022-08-07T05:45:14.261Z,12.9
2022-08-07T05:46:57.540Z,14.6
2022-08-07T05:49:01.437Z,18.2
2022-08-07T05:51:05.318Z,14.3
2022-08-07T05:57:17.043Z,20.5
2022-08-07T05:59:24.199Z,18.8
2022-08-07T06:04:35.586Z,17.3
2022-08-07T06:06:46.054Z,15
2022-08-07T06:08:44.332Z,17.5
2022-08-07T06:10:47.321Z,16.5
2022-08-07T06:14:58.774Z,14.1
2022-08-07T06:17:02.253Z,14.7
2022-08-07T06:19:06.639Z,16.7
2022-08-07T06:25:17.809Z,15.7
2022-08-07T06:27:44.036Z,18.6
2022-08-07T06:29:28.874Z,18
2022-08-07T06:31:38.459Z,16
2022-08-07T06:33:36.668Z,17.2
2022-08-07T06:37:44.810Z,13.1
2022-08-07T06:40:15.721Z,14.7
2022-08-07T06:42:02.213Z,17.2
2022-08-07T06:44:01.582Z,18.5
2022-08-07T06:46:03.316Z,15.3
2022-08-07T06:48:07.167Z,15.9
2022-08-07T06:50:11.059Z,14
2022-08-07T06:52:14.905Z,12.7
2022-08-07T06:55:32.586Z,11.5
2022-08-07T06:56:25.939Z,15.3
2022-08-07T06:58:29.804Z,18.8
2022-08-07T07:00:33.691Z,14.6
2022-08-07T07:03:08.833Z,12.8
2022-08-07T07:07:19.321Z,11.4
2022-08-07T07:09:18.931Z,12.6
2022-08-07T07:12:08.960Z,10.7
2022-08-07T07:13:55.606Z,12.4
2022-08-07T07:15:35.872Z,12.3
2022-08-07T07:17:39.181Z,23.6
2022-08-07T07:19:55.019Z,11.7
2022-08-07T07:22:11.961Z,13.7
2022-08-07T07:24:10.220Z,12.2
2022-08-07T07:26:34.706Z,11.8
2022-08-07T07:28:03.089Z,15.8
2022-08-07T07:32:06.167Z,12.1
2022-08-07T07:34:10.030Z,14.3
2022-08-07T07:36:17.325Z,13.8
2022-08-07T07:38:20.925Z,14
2022-08-07T07:40:26.090Z,13.5
2022-08-07T07:42:32.480Z,11.9
2022-08-07T07:44:32.390Z,11.2
2022-08-07T07:46:54.087Z,12.8
2022-08-07T07:48:40.010Z,11.4
2022-08-07T07:50:43.826Z,16.5
2022-08-07T07:54:54.716Z,14.3
2022-08-07T07:56:58.571Z,15.6
2022-08-07T08:08:35.470Z,10.7
2022-08-07T08:14:36.386Z,8.7
2022-08-07T08:18:43.363Z,9.8
2022-08-07T08:20:50.479Z,6.1
2022-08-07T08:22:56.196Z,6.3
2022-08-07T08:25:09.346Z,6.7
2022-08-07T08:27:01.809Z,6.9
2022-08-07T08:29:05.588Z,7.7
2022-08-07T08:31:13.834Z,8.2
2022-08-07T08:33:16.132Z,8.1
2022-08-07T08:35:20.321Z,7.2
2022-08-07T08:37:59.518Z,7.1
2022-08-07T08:39:39.657Z,6.2
2022-08-07T08:43:42.170Z,5.6
2022-08-07T08:45:41.934Z,7.1
2022-08-07T08:50:04.666Z,8.3
2022-08-07T08:52:13.744Z,6.2
2022-08-07T08:53:57.675Z,6.3
2022-08-07T08:55:04.618Z,8.1
2022-08-07T08:57:04.984Z,5.8
2022-08-07T08:59:13.730Z,6.9
2022-08-07T09:01:15.089Z,5.2
2022-08-07T09:05:37.304Z,4.8
2022-08-07T09:07:27.296Z,5.6
2022-08-07T09:09:36.598Z,7.6
2022-08-07T09:11:43.373Z,6
2022-08-07T09:13:38.593Z,10.1
2022-08-07T09:16:21.901Z,6.4
2022-08-07T09:17:59.262Z,5.8
2022-08-07T09:24:33.424Z,5
2022-08-07T09:26:04.516Z,5.5
2022-08-07T09:30:01.123Z,4.8
2022-08-07T09:30:12.134Z,5.5
2022-08-07T09:32:19.189Z,5.1
2022-08-07T09:34:22.971Z,5.9
2022-08-07T09:40:34.352Z,5.4
2022-08-07T09:50:56.480Z,5.8
2022-08-07T09:52:10.542Z,5.2
2022-08-07T09:54:03.755Z,5
2022-08-07T09:56:07.524Z,8.1
2022-08-07T09:58:11.590Z,4.8
2022-08-07T10:00:18.785Z,4.4
2022-08-07T10:02:24.171Z,5.1
2022-08-07T10:04:32.381Z,5.8
2022-08-07T10:06:29.700Z,5.5
2022-08-07T10:08:33.421Z,5.2
2022-08-07T10:11:07.591Z,5.6
2022-08-07T10:12:40.946Z,3.9
2022-08-07T10:14:55.253Z,4.7
2022-08-07T10:16:51.791Z,4.4
2022-08-07T10:18:55.577Z,4.3
2022-08-07T10:20:59.343Z,4.4
2022-08-07T10:23:03.086Z,4
2022-08-07T10:25:06.838Z,4.6
2022-08-07T10:27:10.776Z,5.3
2022-08-07T10:34:04.985Z,5.6
2022-08-07T10:39:41.489Z,4.9
2022-08-07T10:41:46.321Z,4.2
2022-08-07T10:43:47.290Z,4.5
2022-08-07T10:47:52.949Z,4.9
2022-08-07T19:34:33.969Z,7.1
2022-08-07T19:36:27.771Z,6.8
2022-08-07T19:38:52.873Z,11.5
2022-08-07T19:40:54.231Z,11.3
2022-08-07T19:45:08.287Z,6.3
2022-08-07T19:49:12.828Z,7.4
2022-08-07T19:51:19.090Z,6.8
2022-08-07T19:55:24.364Z,5.5
2022-08-07T19:57:59.983Z,4.9
2022-08-07T20:03:43.089Z,8.7
2022-08-07T20:06:01.175Z,7.1
2022-08-07T20:07:51.189Z,6.6
2022-08-07T20:22:28.999Z,5.4
2022-08-07T20:24:28.751Z,7.5
2022-08-07T20:30:39.709Z,5.9
2022-08-07T20:32:43.578Z,6.3
2022-08-07T20:35:52.006Z,16.1
2022-08-07T20:48:28.846Z,6.4
2022-08-07T20:50:21.566Z,5.9
2022-08-07T20:52:50.314Z,7.5
2022-08-07T20:54:30.073Z,13.3
2022-08-07T20:56:36.249Z,7.8
2022-08-07T21:00:44.124Z,8.1
2022-08-07T21:02:54.190Z,7.9
2022-08-07T21:04:51.738Z,8.7
2022-08-07T21:06:56.815Z,7.2
2022-08-07T21:08:59.498Z,11.1
2022-08-07T21:11:07.461Z,10.8
2022-08-07T21:13:10.522Z,6.6
2022-08-07T21:15:19.024Z,10.1
2022-08-07T21:18:02.841Z,6.1
2022-08-07T21:19:22.149Z,7.5
2022-08-07T21:21:27.239Z,11.3
2022-08-07T21:23:29.933Z,6.4
2022-08-07T21:25:39.145Z,7.3
2022-08-07T21:27:46.995Z,9.1
2022-08-07T21:29:47.190Z,6.1
2022-08-07T21:32:52.541Z,6.7
2022-08-07T21:39:45.357Z,8.5
2022-08-07T21:41:11.189Z,6.5
2022-08-07T21:47:22.702Z,12.6
2022-08-07T21:49:26.935Z,11.1
2022-08-07T21:53:46.452Z,7.6
2022-08-07T21:55:41.508Z,6.9
2022-08-07T22:02:07.418Z,10.2
2022-08-07T22:08:08.061Z,8.8
2022-08-07T22:10:11.926Z,7.9
2022-08-07T22:12:15.785Z,10.6
2022-08-07T22:16:44.259Z,8
2022-08-07T22:18:27.461Z,8.4
2022-08-07T22:20:31.358Z,8.4
2022-08-07T22:24:42.383Z,9.4
2022-08-07T22:26:46.251Z,12
2022-08-07T22:28:08.002Z,11.3
2022-08-07T22:29:54.259Z,9.1
2022-08-07T22:32:00.444Z,10.9
2022-08-07T22:34:01.495Z,9
2022-08-07T22:38:12.520Z,9.1
2022-08-07T22:44:24.225Z,9.1
2022-08-07T22:48:55.310Z,9.7
2022-08-07T22:58:54.651Z,10.9
2022-08-07T23:03:02.506Z,8
2022-08-07T23:07:31.925Z,16.1
2022-08-07T23:10:06.455Z,10.4
2022-08-07T23:11:21.246Z,9
2022-08-07T23:13:29.319Z,9.2
2022-08-07T23:17:32.946Z,8.2
2022-08-07T23:19:51.705Z,10.3
2022-08-07T23:21:44.008Z,7.6
2022-08-07T23:24:06.858Z,14.1
2022-08-07T23:30:37.207Z,14.5
2022-08-07T23:34:18.597Z,9.8
2022-08-07T23:36:38.930Z,12.1
2022-08-07T23:38:43.270Z,12.1
2022-08-07T23:40:49.180Z,11.6
2022-08-07T23:42:53.405Z,11.3
2022-08-07T23:44:54.534Z,8.3
2022-08-07T23:47:01.697Z,8.6
2022-08-07T23:52:57.891Z,14.7
2022-08-07T23:53:17.669Z,9.7
2022-08-07T23:55:53.448Z,11.8
2022-08-07T23:57:22.329Z,8
